createdAt,value
2018-08-19T00:00:49.988Z,7.4
2018-08-19T00:02:50.174Z,7.2
2018-08-19T00:04:49.775Z,7.2
2018-08-19T00:06:50.146Z,7.0
2018-08-19T00:08:50.293Z,6.8
2018-08-19T00:10:50.475Z,6.6
2018-08-19T00:12:50.438Z,6.6
2018-08-19T00:14:50.500Z,6.6
2018-08-19T00:16:49.806Z,6.5
2018-08-19T00:18:50.041Z,7.1
2018-08-19T00:20:50.199Z,7.1
2018-08-19T00:22:50.243Z,6.6
2018-08-19T00:24:50.388Z,7.0
2018-08-19T00:26:49.682Z,6.9
2018-08-19T00:28:49.857Z,6.4
2018-08-19T00:30:50.016Z,6.4
2018-08-19T00:32:50.232Z,6.5
2018-08-19T00:34:49.769Z,6.5
2018-08-19T00:36:50.068Z,6.3
2018-08-19T00:38:50.270Z,6.3
2018-08-19T00:40:50.395Z,6.6
2018-08-19T00:42:49.605Z,6.5
2018-08-19T00:44:49.631Z,6.7
2018-08-19T00:46:50.056Z,6.9
2018-08-19T00:48:50.147Z,6.9
2018-08-19T00:50:50.330Z,6.6
2018-08-19T00:52:50.482Z,6.6
2018-08-19T00:54:49.578Z,7.2
2018-08-19T00:56:49.830Z,6.8
2018-08-19T00:58:49.876Z,6.8
2018-08-19T01:00:50.101Z,7.3
2018-08-19T01:02:50.333Z,7.0
2018-08-19T01:04:49.916Z,7.6
2018-08-19T01:06:50.296Z,7.6
2018-08-19T01:08:50.324Z,7.6
2018-08-19T01:10:50.367Z,7.6
2018-08-19T01:12:49.641Z,7.5
2018-08-19T01:14:50.031Z,7.8
2018-08-19T01:16:50.450Z,7.4
2018-08-19T01:18:49.554Z,7.4
2018-08-19T01:20:49.671Z,8.3
2018-08-19T01:22:49.921Z,8.3
2018-08-19T01:24:50.216Z,8.7
2018-08-19T01:26:49.690Z,8.7
2018-08-19T01:28:49.850Z,9.1
2018-08-19T01:30:49.983Z,9.2
2018-08-19T01:32:50.018Z,9.2
2018-08-19T01:34:49.548Z,9.1
2018-08-19T01:36:49.935Z,9.1
2018-08-19T01:38:50.054Z,9.1
2018-08-19T01:40:50.238Z,9.0
2018-08-19T01:42:50.452Z,9.1
2018-08-19T01:44:49.711Z,9.2
2018-08-19T01:46:49.959Z,9.2
2018-08-19T01:48:50.020Z,9.0
2018-08-19T01:50:50.081Z,9.0
2018-08-19T01:52:50.562Z,9.2
2018-08-19T01:54:49.744Z,9.4
2018-08-19T01:56:50.154Z,9.4
2018-08-19T01:58:50.223Z,9.3
2018-08-19T02:00:50.364Z,9.8
2018-08-19T02:02:50.501Z,9.3
2018-08-19T02:04:50.133Z,9.6
2018-08-19T02:06:49.685Z,9.6
2018-08-19T02:08:50.037Z,10.3
2018-08-19T02:10:50.243Z,10.6
2018-08-19T02:12:50.519Z,10.8
2018-08-19T02:14:49.856Z,11.3
2018-08-19T02:16:50.259Z,11.3
2018-08-19T02:18:50.471Z,11.1
2018-08-19T02:20:49.984Z,11.1
2018-08-19T02:22:49.671Z,11.1
2018-08-19T02:24:49.810Z,11.5
2018-08-19T02:26:50.128Z,12.4
2018-08-19T02:28:50.390Z,12.4
2018-08-19T02:30:50.576Z,12.3
2018-08-19T02:32:49.796Z,11.7
2018-08-19T02:34:50.450Z,11.7
2018-08-19T02:36:49.873Z,11.7
2018-08-19T02:38:50.010Z,11.7
2018-08-19T02:40:50.007Z,12.6
2018-08-19T02:42:50.072Z,12.6
2018-08-19T02:44:50.215Z,11.6
2018-08-19T02:46:49.563Z,12.2
2018-08-19T02:48:49.710Z,11.5
2018-08-19T02:50:49.837Z,12.4
2018-08-19T02:52:49.916Z,12.4
2018-08-19T02:54:50.159Z,11.6
2018-08-19T02:56:50.521Z,10.6
2018-08-19T02:58:49.822Z,10.4
2018-08-19T03:00:50.099Z,10.4
2018-08-19T03:02:50.288Z,10.4
2018-08-19T03:04:49.782Z,10.4
2018-08-19T03:06:50.127Z,10.4
2018-08-19T03:08:50.269Z,10.5
2018-08-19T03:10:50.380Z,10.4
2018-08-19T03:12:49.553Z,10.4
2018-08-19T03:14:49.645Z,10.7
2018-08-19T03:16:49.937Z,10.8
2018-08-19T03:18:50.087Z,10.7
2018-08-19T03:20:50.319Z,11.0
2018-08-19T03:22:50.500Z,11.0
2018-08-19T03:24:49.573Z,11.3
2018-08-19T03:26:49.917Z,10.5
2018-08-19T03:28:50.017Z,10.7
2018-08-19T03:30:50.184Z,10.7
2018-08-19T03:32:50.400Z,10.4
2018-08-19T03:34:50.078Z,10.5
2018-08-19T03:36:50.312Z,10.2
2018-08-19T03:38:50.387Z,10.9
2018-08-19T03:40:49.550Z,11.0
2018-08-19T03:42:49.738Z,11.0
2018-08-19T03:44:49.844Z,11.0
2018-08-19T03:46:50.262Z,11.2
2018-08-19T03:48:50.439Z,11.1
2018-08-19T03:50:50.515Z,11.1
2018-08-19T03:52:49.604Z,11.3
2018-08-19T03:54:49.666Z,11.3
2018-08-19T03:56:50.178Z,11.2
2018-08-19T03:58:50.389Z,11.3
2018-08-19T04:00:49.558Z,11.3
2018-08-19T04:02:49.799Z,11.5
2018-08-19T04:04:50.426Z,11.5
2018-08-19T04:06:49.661Z,11.0
2018-08-19T04:08:49.711Z,10.6
2018-08-19T04:10:50.147Z,10.6
2018-08-19T04:12:50.288Z,11.6
2018-08-19T04:14:50.459Z,11.9
2018-08-19T04:16:49.668Z,11.7
2018-08-19T04:18:49.656Z,11.7
2018-08-19T04:20:49.694Z,11.0
2018-08-19T04:22:49.930Z,11.2
2018-08-19T04:24:50.064Z,11.1
2018-08-19T04:26:50.246Z,11.3
2018-08-19T04:28:50.291Z,11.3
2018-08-19T04:30:50.304Z,11.6
2018-08-19T04:32:50.307Z,11.5
2018-08-19T04:34:49.953Z,11.3
2018-08-19T04:36:50.344Z,12.0
2018-08-19T04:38:50.465Z,12.0
2018-08-19T04:40:49.612Z,12.5
2018-08-19T04:42:49.653Z,12.5
2018-08-19T04:44:49.766Z,12.4
2018-08-19T04:46:50.024Z,12.5
2018-08-19T04:48:50.315Z,12.5
2018-08-19T04:50:50.480Z,13.5
2018-08-19T04:52:49.698Z,13.0
2018-08-19T04:54:49.689Z,13.4
2018-08-19T04:56:50.174Z,12.9
2018-08-19T04:58:50.270Z,12.9
2018-08-19T05:00:50.470Z,12.2
2018-08-19T05:02:49.659Z,12.2
2018-08-19T05:04:50.185Z,12.5
2018-08-19T05:06:50.494Z,12.6
2018-08-19T05:08:50.511Z,12.6
2018-08-19T05:10:49.587Z,12.9
2018-08-19T05:12:49.728Z,13.0
2018-08-19T05:14:49.884Z,13.0
2018-08-19T05:16:50.255Z,13.3
2018-08-19T05:18:50.255Z,13.3
2018-08-19T05:20:50.431Z,13.1
2018-08-19T05:22:49.746Z,13.4
2018-08-19T05:24:49.912Z,13.0
2018-08-19T05:26:50.257Z,13.0
2018-08-19T05:28:50.344Z,12.5
2018-08-19T05:30:50.480Z,12.5
2018-08-19T05:32:49.607Z,12.6
2018-08-19T05:34:50.318Z,12.6
2018-08-19T05:36:50.369Z,12.2
2018-08-19T05:38:50.505Z,12.2
2018-08-19T05:40:49.660Z,11.8
2018-08-19T05:42:49.699Z,10.3
2018-08-19T05:44:49.811Z,9.7
2018-08-19T05:46:50.207Z,9.4
2018-08-19T05:48:50.310Z,9.4
2018-08-19T05:50:50.403Z,9.4
2018-08-19T05:52:50.507Z,10.3
2018-08-19T05:54:49.521Z,10.6
2018-08-19T05:56:49.803Z,10.6
2018-08-19T05:58:49.895Z,10.5
2018-08-19T06:00:50.075Z,10.6
2018-08-19T06:02:50.165Z,10.6
2018-08-19T06:04:50.488Z,11.5
2018-08-19T06:06:49.821Z,11.1
2018-08-19T06:08:50.022Z,11.1
2018-08-19T06:10:50.398Z,10.9
2018-08-19T06:12:50.538Z,11.6
2018-08-19T06:14:49.720Z,11.3
2018-08-19T06:16:50.240Z,11.3
2018-08-19T06:18:49.586Z,11.2
2018-08-19T06:20:49.588Z,10.8
2018-08-19T06:22:49.612Z,10.8
2018-08-19T06:24:49.698Z,11.4
2018-08-19T06:26:50.129Z,11.4
2018-08-19T06:28:50.347Z,11.5
2018-08-19T06:30:49.746Z,11.8
2018-08-19T06:32:49.943Z,11.1
2018-08-19T06:34:50.059Z,11.6
2018-08-19T06:36:49.799Z,11.6
2018-08-19T06:38:50.003Z,10.7
2018-08-19T06:40:50.156Z,10.6
2018-08-19T06:42:50.255Z,11.3
2018-08-19T06:44:50.333Z,11.1
2018-08-19T06:46:49.735Z,11.1
2018-08-19T06:48:49.842Z,10.8
2018-08-19T06:50:49.866Z,11.1
2018-08-19T06:52:49.922Z,10.9
2018-08-19T06:54:49.970Z,10.9
2018-08-19T06:56:50.402Z,11.2
2018-08-19T06:58:49.551Z,10.6
2018-08-19T07:00:49.552Z,11.1
2018-08-19T07:02:49.741Z,11.0
2018-08-19T07:04:50.198Z,11.0
2018-08-19T07:06:49.605Z,10.8
2018-08-19T07:08:49.888Z,10.7
2018-08-19T07:10:50.439Z,11.2
2018-08-19T07:12:49.795Z,11.2
2018-08-19T07:14:49.936Z,11.2
2018-08-19T07:16:50.319Z,10.8
2018-08-19T07:18:50.685Z,11.8
2018-08-19T07:20:50.207Z,11.1
2018-08-19T07:22:50.404Z,11.1
2018-08-19T07:24:49.614Z,11.3
2018-08-19T07:26:50.201Z,10.6
2018-08-19T07:28:50.360Z,11.6
2018-08-19T07:30:50.345Z,11.5
2018-08-19T07:32:50.433Z,11.5
2018-08-19T07:34:50.082Z,11.7
2018-08-19T07:36:50.719Z,11.4
2018-08-19T07:38:50.314Z,11.1
2018-08-19T07:40:50.482Z,10.8
2018-08-19T07:42:50.503Z,10.8
2018-08-19T07:44:49.573Z,11.4
2018-08-19T07:46:49.873Z,10.7
2018-08-19T07:48:50.123Z,10.7
2018-08-19T07:50:50.297Z,10.7
2018-08-19T07:52:50.499Z,10.5
2018-08-19T07:54:49.587Z,10.9
2018-08-19T07:56:50.065Z,10.6
2018-08-19T07:58:50.120Z,10.4
2018-08-19T08:00:49.888Z,10.4
2018-08-19T08:02:50.103Z,10.6
2018-08-19T08:04:49.863Z,9.8
2018-08-19T08:06:50.289Z,10.6
2018-08-19T08:08:50.486Z,10.4
2018-08-19T08:10:49.843Z,10.7
2018-08-19T08:12:50.230Z,10.7
2018-08-19T08:14:50.416Z,10.3
2018-08-19T08:16:49.912Z,10.3
2018-08-19T08:18:50.007Z,10.2
2018-08-19T08:20:50.150Z,9.9
2018-08-19T08:22:50.279Z,9.9
2018-08-19T08:24:50.286Z,9.4
2018-08-19T08:26:49.709Z,10.0
2018-08-19T08:28:49.888Z,10.0
2018-08-19T08:30:50.082Z,9.6
2018-08-19T08:32:50.168Z,9.7
2018-08-19T08:34:49.791Z,9.3
2018-08-19T08:36:50.040Z,9.3
2018-08-19T08:38:50.170Z,10.2
2018-08-19T08:40:50.277Z,9.5
2018-08-19T08:42:50.457Z,9.5
2018-08-19T08:44:49.860Z,9.3
2018-08-19T08:46:49.843Z,9.1
2018-08-19T08:48:49.907Z,9.1
2018-08-19T08:50:49.974Z,8.7
2018-08-19T08:52:50.105Z,8.7
2018-08-19T08:54:50.416Z,8.3
2018-08-19T08:56:49.916Z,8.2
2018-08-19T08:58:50.080Z,7.8
2018-08-19T09:00:50.285Z,7.8
2018-08-19T09:02:50.358Z,7.7
2018-08-19T09:04:49.957Z,8.2
2018-08-19T09:06:50.373Z,11.4
2018-08-19T09:08:50.456Z,7.7
2018-08-19T09:10:49.657Z,7.7
2018-08-19T09:12:49.917Z,7.3
2018-08-19T09:14:50.093Z,6.8
2018-08-19T09:16:50.373Z,6.6
2018-08-19T09:18:50.487Z,6.7
2018-08-19T09:20:49.605Z,6.7
2018-08-19T09:22:49.917Z,6.7
2018-08-19T09:24:50.302Z,5.7
2018-08-19T09:26:49.590Z,5.7
2018-08-19T09:28:49.641Z,5.9
2018-08-19T09:30:49.887Z,6.3
2018-08-19T09:32:50.250Z,7.5
2018-08-19T09:34:50.128Z,6.6
2018-08-19T09:36:50.406Z,6.7
2018-08-19T09:38:49.605Z,6.7
2018-08-19T09:40:49.806Z,6.7
2018-08-19T09:42:50.352Z,7.2
2018-08-19T09:44:50.513Z,7.4
2018-08-19T09:46:49.949Z,7.4
2018-08-19T09:48:50.006Z,7.4
2018-08-19T09:50:50.082Z,7.0
2018-08-19T09:52:50.218Z,6.9
2018-08-19T09:54:50.317Z,6.4
2018-08-19T09:56:49.711Z,6.4
2018-08-19T09:58:49.906Z,6.0
2018-08-19T10:00:49.976Z,7.0
2018-08-19T10:02:50.499Z,6.5
2018-08-19T10:04:50.169Z,6.5
2018-08-19T10:06:49.526Z,6.0
2018-08-19T10:08:49.641Z,6.2
2018-08-19T10:10:49.894Z,6.3
2018-08-19T10:12:50.092Z,6.1
2018-08-19T10:14:50.129Z,6.1
2018-08-19T10:16:50.430Z,5.8
2018-08-19T10:18:49.572Z,5.8
2018-08-19T10:20:49.697Z,5.2
2018-08-19T10:22:49.989Z,5.2
2018-08-19T10:24:49.986Z,4.6
2018-08-19T10:26:50.349Z,4.6
2018-08-19T10:28:50.421Z,5.1
2018-08-19T10:30:50.544Z,4.8
2018-08-19T10:32:49.741Z,4.8
2018-08-19T10:34:50.246Z,4.7
2018-08-19T10:36:49.577Z,4.8
2018-08-19T10:38:49.562Z,4.8
2018-08-19T10:40:49.699Z,5.0
2018-08-19T10:42:49.921Z,5.0
2018-08-19T10:44:50.120Z,5.0
2018-08-19T10:46:50.459Z,4.9
2018-08-19T10:48:50.494Z,4.9
2018-08-19T10:50:49.685Z,5.1
2018-08-19T10:52:49.862Z,4.6
2018-08-19T10:54:49.905Z,4.6
2018-08-19T10:56:50.476Z,4.4
2018-08-19T10:58:49.749Z,4.4
2018-08-19T11:00:49.842Z,4.4
2018-08-19T11:02:50.019Z,4.9
2018-08-19T11:04:50.486Z,4.9
2018-08-19T11:06:49.768Z,4.9
2018-08-19T11:08:49.911Z,5.4
2018-08-19T11:10:50.068Z,5.5
2018-08-19T11:12:50.494Z,4.6
2018-08-19T11:14:49.711Z,4.6
2018-08-19T11:16:50.110Z,4.6
2018-08-19T11:18:50.324Z,4.7
2018-08-19T11:20:50.474Z,4.5
2018-08-19T11:22:49.620Z,4.5
2018-08-19T11:24:49.723Z,4.5
2018-08-19T11:26:50.041Z,4.7
2018-08-19T11:28:50.061Z,4.7
2018-08-19T11:30:50.069Z,4.7
2018-08-19T11:32:50.189Z,5.0
2018-08-19T11:34:49.846Z,5.0
2018-08-19T11:36:50.091Z,4.7
2018-08-19T11:38:49.877Z,4.9
2018-08-19T11:40:50.079Z,4.6
2018-08-19T11:42:50.180Z,4.6
2018-08-19T11:44:50.435Z,4.9
2018-08-19T11:46:49.853Z,4.5
2018-08-19T11:48:50.142Z,4.7
2018-08-19T11:50:49.609Z,4.7
2018-08-19T11:52:49.660Z,4.7
2018-08-19T11:54:49.996Z,4.8
2018-08-19T11:56:49.559Z,4.4
2018-08-19T11:58:49.572Z,4.7
2018-08-19T12:00:49.823Z,5.0
2018-08-19T12:02:50.271Z,5.0
2018-08-19T12:04:49.772Z,4.4
2018-08-19T12:06:50.133Z,4.3
2018-08-19T12:08:50.266Z,4.3
2018-08-19T12:10:50.358Z,4.6
2018-08-19T12:12:50.507Z,4.9
2018-08-19T12:14:49.762Z,4.9
2018-08-19T12:16:50.189Z,4.7
2018-08-19T12:18:50.394Z,4.7
2018-08-19T12:20:50.391Z,4.7
2018-08-19T12:22:50.473Z,4.5
2018-08-19T12:24:49.568Z,4.3
2018-08-19T12:26:49.866Z,4.2
2018-08-19T12:28:50.048Z,4.2
2018-08-19T12:30:50.173Z,4.2
2018-08-19T12:32:50.230Z,4.6
2018-08-19T12:34:49.920Z,4.8
2018-08-19T12:36:50.260Z,4.5
2018-08-19T12:38:50.364Z,4.5
2018-08-19T12:40:49.527Z,4.5
2018-08-19T12:42:50.555Z,4.5
2018-08-19T12:44:49.959Z,4.4
2018-08-19T12:46:49.843Z,4.5
2018-08-19T12:48:49.965Z,4.4
2018-08-19T12:50:50.009Z,4.6
2018-08-19T12:52:50.089Z,4.6
2018-08-19T12:54:50.239Z,4.7
2018-08-19T12:56:50.510Z,4.3
2018-08-19T12:58:49.893Z,4.9
2018-08-19T13:00:49.984Z,4.9
2018-08-19T13:02:50.083Z,4.6
2018-08-19T13:04:49.814Z,4.3
2018-08-19T13:06:50.136Z,4.5
2018-08-19T13:08:50.226Z,4.5
2018-08-19T13:10:50.355Z,4.1
2018-08-19T13:12:50.415Z,4.0
2018-08-19T13:14:50.397Z,4.1
2018-08-19T13:16:49.852Z,4.1
2018-08-19T13:18:49.964Z,4.0
2018-08-19T13:20:50.166Z,4.0
2018-08-19T13:22:50.337Z,4.3
2018-08-19T13:24:49.940Z,4.3
2018-08-19T13:26:50.255Z,4.0
2018-08-19T13:28:50.498Z,3.9
2018-08-19T13:30:49.528Z,3.7
2018-08-19T13:32:49.547Z,4.0
2018-08-19T13:34:50.347Z,4.0
2018-08-19T13:36:49.624Z,3.7
2018-08-19T13:38:49.798Z,3.7
2018-08-19T13:40:49.997Z,4.0
2018-08-19T13:42:50.095Z,3.9
2018-08-19T13:44:50.231Z,4.1
2018-08-19T13:46:49.623Z,4.1
2018-08-19T13:48:49.756Z,4.1
2018-08-19T13:50:49.779Z,4.0
2018-08-19T13:52:49.949Z,4.3
2018-08-19T13:54:50.257Z,3.9
2018-08-19T13:56:49.763Z,3.9
2018-08-19T13:58:49.991Z,3.8
2018-08-19T14:00:50.212Z,3.8
2018-08-19T14:02:49.581Z,3.8
2018-08-19T14:04:50.499Z,3.6
2018-08-19T14:06:50.189Z,3.6
2018-08-19T14:08:50.360Z,3.7
2018-08-19T14:10:49.629Z,3.7
2018-08-19T14:12:49.967Z,3.5
2018-08-19T14:14:50.243Z,3.5
2018-08-19T14:16:49.641Z,3.5
2018-08-19T14:18:49.860Z,3.7
2018-08-19T14:20:50.232Z,3.8
2018-08-19T14:22:49.709Z,3.7
2018-08-19T14:24:49.835Z,3.7
2018-08-19T14:26:50.298Z,3.8
2018-08-19T14:28:49.582Z,3.6
2018-08-19T14:30:49.989Z,3.6
2018-08-19T14:32:49.856Z,3.6
2018-08-19T14:34:50.448Z,3.6
2018-08-19T14:36:49.992Z,3.6
2018-08-19T14:38:50.296Z,3.3
2018-08-19T14:40:50.518Z,3.9
2018-08-19T14:42:49.678Z,3.7
2018-08-19T14:44:49.942Z,3.7
2018-08-19T14:46:50.406Z,3.6
2018-08-19T14:48:49.719Z,3.4
2018-08-19T14:50:49.880Z,3.2
2018-08-19T14:52:50.076Z,3.2
2018-08-19T14:54:50.360Z,3.4
2018-08-19T14:56:49.798Z,3.5
2018-08-19T14:58:50.006Z,3.5
2018-08-19T15:00:50.256Z,3.7
2018-08-19T15:02:50.564Z,3.6
2018-08-19T15:04:50.233Z,3.6
2018-08-19T15:06:49.703Z,3.8
2018-08-19T15:08:49.970Z,3.5
2018-08-19T15:10:50.173Z,3.5
2018-08-19T15:12:50.424Z,3.7
2018-08-19T15:14:49.732Z,3.7
2018-08-19T15:16:50.330Z,3.5
2018-08-19T15:18:49.554Z,3.7
2018-08-19T15:20:49.903Z,3.6
2018-08-19T15:22:50.300Z,3.6
2018-08-19T15:24:49.682Z,3.6
2018-08-19T15:26:50.140Z,3.9
2018-08-19T15:28:50.339Z,3.5
2018-08-19T15:30:49.655Z,3.4
2018-08-19T15:32:50.891Z,3.4
2018-08-19T15:34:49.609Z,3.6
2018-08-19T15:36:50.073Z,3.5
2018-08-19T15:38:50.161Z,3.6
2018-08-19T15:40:50.606Z,3.6
2018-08-19T15:42:50.010Z,3.7
2018-08-19T15:44:50.352Z,3.6
2018-08-19T15:46:49.733Z,3.8
2018-08-19T15:48:49.902Z,3.8
2018-08-19T15:50:50.152Z,3.5
2018-08-19T15:52:50.613Z,3.5
2018-08-19T15:54:50.140Z,4.0
2018-08-19T15:56:49.660Z,3.5
2018-08-19T15:58:50.219Z,3.6
2018-08-19T16:00:49.726Z,3.4
2018-08-19T16:02:49.904Z,3.4
2018-08-19T16:04:49.604Z,3.8
2018-08-19T16:06:50.156Z,3.6
2018-08-19T16:08:50.475Z,3.6
2018-08-19T16:10:49.721Z,3.7
2018-08-19T16:12:49.995Z,3.7
2018-08-19T16:14:50.255Z,3.6
2018-08-19T16:16:49.805Z,3.6
2018-08-19T16:18:49.998Z,3.6
2018-08-19T16:20:50.388Z,3.9
2018-08-19T16:22:49.621Z,3.9
2018-08-19T16:24:49.909Z,3.7
2018-08-19T16:26:50.164Z,3.5
2018-08-19T16:28:50.167Z,3.6
2018-08-19T16:30:50.258Z,3.9
2018-08-19T16:32:50.419Z,3.9
2018-08-19T16:34:49.891Z,3.9
2018-08-19T16:36:50.310Z,3.9
2018-08-19T16:38:50.399Z,3.7
2018-08-19T16:40:50.563Z,3.7
2018-08-19T16:42:49.575Z,3.6
2018-08-19T16:44:49.898Z,3.7
2018-08-19T16:46:49.762Z,4.0
2018-08-19T16:48:49.819Z,4.0
2018-08-19T16:50:50.157Z,4.0
2018-08-19T16:52:50.460Z,4.0
2018-08-19T16:54:50.499Z,3.8
2018-08-19T16:56:49.830Z,3.5
2018-08-19T16:58:50.225Z,3.5
2018-08-19T17:00:50.264Z,3.7
2018-08-19T17:02:50.513Z,3.8
2018-08-19T17:04:49.807Z,3.7
2018-08-19T17:06:50.041Z,3.6
2018-08-19T17:08:50.065Z,3.6
2018-08-19T17:10:50.105Z,3.9
2018-08-19T17:12:50.226Z,3.9
2018-08-19T17:14:50.262Z,3.5
2018-08-19T17:16:49.731Z,3.5
2018-08-19T17:18:50.089Z,3.7
2018-08-19T17:20:50.144Z,3.6
2018-08-19T17:22:50.202Z,3.6
2018-08-19T17:24:50.312Z,4.1
2018-08-19T17:26:49.712Z,3.9
2018-08-19T17:28:50.045Z,3.9
2018-08-19T17:30:50.096Z,3.6
2018-08-19T17:32:50.509Z,3.8
2018-08-19T17:34:49.977Z,3.8
2018-08-19T17:36:50.492Z,3.6
2018-08-19T17:38:49.537Z,3.4
2018-08-19T17:40:49.554Z,3.8
2018-08-19T17:42:49.674Z,3.7
2018-08-19T17:44:49.960Z,3.8
2018-08-19T17:46:50.282Z,3.8
2018-08-19T17:48:50.337Z,3.8
2018-08-19T17:50:50.451Z,3.7
2018-08-19T17:52:49.634Z,3.9
2018-08-19T17:54:49.820Z,4.0
2018-08-19T17:56:50.086Z,4.1
2018-08-19T17:58:50.149Z,4.1
2018-08-19T18:00:50.353Z,3.9
2018-08-19T18:02:49.573Z,3.9
2018-08-19T18:04:50.087Z,3.9
2018-08-19T18:06:50.336Z,3.9
2018-08-19T18:08:50.457Z,4.2
2018-08-19T18:10:49.753Z,4.0
2018-08-19T18:12:49.912Z,4.0
2018-08-19T18:14:50.221Z,3.7
2018-08-19T18:16:49.888Z,3.7
2018-08-19T18:18:49.969Z,4.0
2018-08-19T18:20:49.943Z,3.9
2018-08-19T18:22:49.894Z,3.9
2018-08-19T18:24:50.000Z,4.1
2018-08-19T18:26:50.408Z,4.4
2018-08-19T18:28:50.432Z,4.4
2018-08-19T18:30:50.554Z,4.3
2018-08-19T18:32:49.777Z,4.7
2018-08-19T18:34:50.458Z,4.3
2018-08-19T18:36:49.816Z,4.3
2018-08-19T18:38:49.872Z,4.6
2018-08-19T18:40:49.922Z,4.6
2018-08-19T18:42:50.089Z,5.1
2018-08-19T18:44:50.379Z,5.1
2018-08-19T18:46:49.639Z,5.5
2018-08-19T18:48:49.761Z,5.2
2018-08-19T18:50:49.819Z,5.3
2018-08-19T18:52:49.877Z,6.4
2018-08-19T18:54:50.096Z,6.4
2018-08-19T18:56:50.417Z,5.3
2018-08-19T18:58:49.646Z,5.5
2018-08-19T19:00:49.883Z,5.8
2018-08-19T19:02:50.155Z,5.8
2018-08-19T19:04:49.774Z,10.2
2018-08-19T19:06:50.207Z,6.2
2018-08-19T19:08:50.301Z,5.7
2018-08-19T19:10:50.367Z,5.6
2018-08-19T19:12:50.411Z,5.0
2018-08-19T19:14:50.552Z,5.0
2018-08-19T19:16:49.834Z,5.4
2018-08-19T19:18:49.861Z,5.0
2018-08-19T19:20:49.787Z,5.0
2018-08-19T19:22:49.961Z,5.1
2018-08-19T19:24:50.105Z,5.1
2018-08-19T19:26:50.318Z,5.2
2018-08-19T19:28:50.507Z,4.7
2018-08-19T19:30:49.580Z,4.8
2018-08-19T19:32:49.746Z,4.7
2018-08-19T19:34:50.199Z,4.7
2018-08-19T19:36:50.461Z,5.2
2018-08-19T19:38:49.622Z,5.4
2018-08-19T19:40:49.809Z,5.4
2018-08-19T19:42:49.786Z,4.9
2018-08-19T19:44:49.772Z,4.7
2018-08-19T19:46:50.258Z,5.2
2018-08-19T19:48:50.323Z,5.2
2018-08-19T19:50:50.311Z,5.2
2018-08-19T19:52:50.433Z,4.7
2018-08-19T19:54:49.530Z,5.2
2018-08-19T19:56:49.960Z,5.2
2018-08-19T19:58:50.223Z,4.8
2018-08-19T20:00:50.327Z,4.9
2018-08-19T20:02:50.366Z,5.0
2018-08-19T20:04:50.048Z,5.0
2018-08-19T20:06:50.377Z,5.1
2018-08-19T20:08:49.541Z,5.2
2018-08-19T20:10:49.638Z,5.0
2018-08-19T20:12:49.726Z,5.0
2018-08-19T20:14:49.895Z,4.8
2018-08-19T20:16:50.207Z,5.2
2018-08-19T20:18:50.450Z,5.2
2018-08-19T20:20:50.534Z,5.8
2018-08-19T20:22:49.666Z,5.8
2018-08-19T20:24:49.763Z,6.1
2018-08-19T20:26:50.136Z,5.6
2018-08-19T20:28:50.299Z,5.0
2018-08-19T20:30:50.480Z,4.9
2018-08-19T20:32:49.717Z,4.9
2018-08-19T20:34:49.569Z,5.3
2018-08-19T20:36:49.906Z,5.1
2018-08-19T20:38:50.083Z,5.2
2018-08-19T20:40:50.080Z,5.6
2018-08-19T20:42:50.180Z,5.6
2018-08-19T20:44:50.205Z,5.8
2018-08-19T20:46:49.536Z,5.8
2018-08-19T20:48:49.615Z,5.5
2018-08-19T20:50:49.622Z,5.6
2018-08-19T20:52:49.699Z,5.6
2018-08-19T20:54:49.969Z,5.3
2018-08-19T20:56:50.303Z,5.2
2018-08-19T20:58:50.346Z,5.7
2018-08-19T21:00:50.436Z,5.7
2018-08-19T21:02:49.573Z,5.6
2018-08-19T21:04:50.188Z,5.8
2018-08-19T21:06:50.470Z,6.3
2018-08-19T21:08:49.590Z,6.3
2018-08-19T21:10:49.745Z,5.1
2018-08-19T21:12:49.786Z,5.7
2018-08-19T21:14:50.120Z,5.8
2018-08-19T21:16:49.752Z,5.6
2018-08-19T21:18:49.857Z,5.6
2018-08-19T21:20:49.824Z,5.8
2018-08-19T21:22:49.786Z,5.8
2018-08-19T21:24:49.882Z,6.1
2018-08-19T21:26:50.202Z,5.8
2018-08-19T21:28:50.354Z,5.8
2018-08-19T21:30:49.566Z,6.2
2018-08-19T21:32:49.839Z,6.0
2018-08-19T21:34:50.411Z,5.5
2018-08-19T21:36:49.641Z,5.7
2018-08-19T21:38:49.954Z,5.7
2018-08-19T21:40:50.148Z,5.8
2018-08-19T21:42:50.356Z,5.5
2018-08-19T21:44:49.633Z,5.8
2018-08-19T21:46:49.982Z,5.8
2018-08-19T21:48:49.960Z,5.7
2018-08-19T21:50:50.073Z,5.8
2018-08-19T21:52:50.162Z,6.0
2018-08-19T21:54:50.232Z,6.1
2018-08-19T21:56:49.741Z,5.8
2018-08-19T21:58:49.872Z,5.8
2018-08-19T22:00:49.889Z,6.1
2018-08-19T22:02:49.980Z,5.7
2018-08-19T22:04:50.471Z,5.7
2018-08-19T22:06:49.885Z,5.8
2018-08-19T22:08:49.870Z,5.9
2018-08-19T22:10:50.017Z,5.9
2018-08-19T22:12:50.112Z,5.8
2018-08-19T22:14:50.258Z,6.2
2018-08-19T22:16:50.474Z,5.8
2018-08-19T22:18:50.399Z,5.8
2018-08-19T22:20:50.457Z,6.2
2018-08-19T22:22:49.681Z,6.3
2018-08-19T22:24:49.697Z,6.2
2018-08-19T22:26:49.920Z,6.2
2018-08-19T22:28:49.991Z,5.9
2018-08-19T22:30:50.116Z,6.1
2018-08-19T22:32:50.286Z,5.9
2018-08-19T22:34:49.763Z,6.2
2018-08-19T22:36:50.249Z,6.2
2018-08-19T22:38:50.412Z,6.0
2018-08-19T22:40:50.489Z,6.2
2018-08-19T22:42:49.560Z,6.3
2018-08-19T22:44:49.616Z,6.1
2018-08-19T22:46:49.924Z,6.1
2018-08-19T22:48:49.924Z,6.4
2018-08-19T22:50:50.435Z,6.5
2018-08-19T22:52:49.577Z,6.5
2018-08-19T22:54:49.803Z,6.5
2018-08-19T22:56:49.986Z,6.2
2018-08-19T22:58:50.038Z,6.5
2018-08-19T23:00:50.176Z,6.4
2018-08-19T23:02:50.344Z,6.7
2018-08-19T23:04:49.788Z,6.8
2018-08-19T23:06:50.092Z,6.8
2018-08-19T23:08:50.170Z,6.2
2018-08-19T23:10:50.256Z,6.6
2018-08-19T23:12:50.269Z,6.6
2018-08-19T23:14:50.355Z,6.6
2018-08-19T23:16:49.581Z,7.1
2018-08-19T23:18:49.542Z,7.1
2018-08-19T23:20:49.587Z,7.1
2018-08-19T23:22:49.794Z,7.2
2018-08-19T23:24:49.820Z,7.2
2018-08-19T23:26:50.092Z,7.3
2018-08-19T23:28:50.192Z,7.0
2018-08-19T23:30:50.253Z,7.1
2018-08-19T23:32:50.221Z,7.1
2018-08-19T23:34:49.683Z,6.9
2018-08-19T23:36:49.929Z,7.2
2018-08-19T23:38:50.024Z,7.0
2018-08-19T23:40:50.026Z,6.8
2018-08-19T23:42:50.049Z,7.1
2018-08-19T23:44:50.389Z,7.1
2018-08-19T23:46:49.612Z,6.6
2018-08-19T23:48:49.649Z,6.8
2018-08-19T23:50:49.752Z,6.8
2018-08-19T23:52:49.818Z,6.7
2018-08-19T23:54:49.778Z,6.7
2018-08-19T23:56:49.982Z,6.7
2018-08-19T23:58:50.078Z,6.6
